<?xml version="1.0" encoding="UTF-8" standalone="no" ?>
<gpx xmlns="http://www.topografix.com/GPX/1/1" xmlns:xsi="http://www.w3.org/2001/XMLSchema-instance" xsi:schemaLocation="http://www.topografix.com/GPX/1/1 http://www.topografix.com/GPX/1/1/gpx.xsd" version="1.1" creator="VisuGPX - https://www.visugpx.com">
  <metadata>
    <name>TRAJET TRAVAIL</name>
  </metadata>
  <trk>
    <name><![CDATA[TRAJET TRAVAIL_1]]></name>
    <trkseg>
      <trkpt lat="44.15274" lon="5.9725">
        <ele>576.936</ele>
        <time>2019-10-25T04:40:45Z</time>
      </trkpt>
      <trkpt lat="44.15274" lon="5.97242">
        <ele>570.626</ele>
        <time>2019-10-25T05:17:07Z</time>
      </trkpt>
      <trkpt lat="44.15274" lon="5.97242">
        <ele>570.519</ele>
        <time>2019-10-25T05:17:13Z</time>
      </trkpt>
      <trkpt lat="44.15274" lon="5.97242">
        <ele>570.556</ele>
        <time>2019-10-25T05:17:18Z</time>
      </trkpt>
      <trkpt lat="44.15274" lon="5.97242">
        <ele>570.696</ele>
        <time>2019-10-25T05:17:24Z</time>
      </trkpt>
      <trkpt lat="44.15274" lon="5.97242">
        <ele>570.889</ele>
        <time>2019-10-25T05:17:30Z</time>
      </trkpt>
      <trkpt lat="44.15274" lon="5.97242">
        <ele>571</ele>
        <time>2019-10-25T05:17:36Z</time>
      </trkpt>
      <trkpt lat="44.15274" lon="5.97242">
        <ele>571.138</ele>
        <time>2019-10-25T05:17:42Z</time>
      </trkpt>
      <trkpt lat="44.15274" lon="5.97242">
        <ele>571.258</ele>
        <time>2019-10-25T05:17:48Z</time>
      </trkpt>
      <trkpt lat="44.15274" lon="5.97242">
        <ele>571.427</ele>
        <time>2019-10-25T05:17:54Z</time>
      </trkpt>
      <trkpt lat="44.15274" lon="5.97242">
        <ele>571.441</ele>
        <time>2019-10-25T05:18:00Z</time>
      </trkpt>
      <trkpt lat="44.15274" lon="5.97242">
        <ele>571.426</ele>
        <time>2019-10-25T05:18:06Z</time>
      </trkpt>
      <trkpt lat="44.15274" lon="5.97242">
        <ele>571.443</ele>
        <time>2019-10-25T05:18:12Z</time>
      </trkpt>
      <trkpt lat="44.15274" lon="5.97242">
        <ele>571.564</ele>
        <time>2019-10-25T05:18:18Z</time>
      </trkpt>
      <trkpt lat="44.15274" lon="5.97242">
        <ele>571.649</ele>
        <time>2019-10-25T05:18:24Z</time>
      </trkpt>
      <trkpt lat="44.15274" lon="5.97244">
        <ele>570.744</ele>
        <time>2019-10-25T05:18:30Z</time>
      </trkpt>
      <trkpt lat="44.15275" lon="5.97243">
        <ele>570.567</ele>
        <time>2019-10-25T05:18:35Z</time>
      </trkpt>
      <trkpt lat="44.15275" lon="5.97243">
        <ele>570.593</ele>
        <time>2019-10-25T05:18:40Z</time>
      </trkpt>
      <trkpt lat="44.15275" lon="5.97243">
        <ele>570.628</ele>
        <time>2019-10-25T05:18:45Z</time>
      </trkpt>
      <trkpt lat="44.15275" lon="5.97243">
        <ele>570.653</ele>
        <time>2019-10-25T05:18:51Z</time>
      </trkpt>
      <trkpt lat="44.15275" lon="5.97243">
        <ele>570.657</ele>
        <time>2019-10-25T05:18:57Z</time>
      </trkpt>
      <trkpt lat="44.15275" lon="5.97243">
        <ele>570.665</ele>
        <time>2019-10-25T05:19:02Z</time>
      </trkpt>
      <trkpt lat="44.15275" lon="5.97243">
        <ele>570.702</ele>
        <time>2019-10-25T05:19:07Z</time>
      </trkpt>
      <trkpt lat="44.15275" lon="5.97243">
        <ele>570.762</ele>
        <time>2019-10-25T05:19:12Z</time>
      </trkpt>
      <trkpt lat="44.15275" lon="5.97243">
        <ele>570.849</ele>
        <time>2019-10-25T05:19:18Z</time>
      </trkpt>
      <trkpt lat="44.15275" lon="5.97243">
        <ele>570.943</ele>
        <time>2019-10-25T05:19:24Z</time>
      </trkpt>
      <trkpt lat="44.15275" lon="5.97243">
        <ele>571.069</ele>
        <time>2019-10-25T05:19:30Z</time>
      </trkpt>
      <trkpt lat="44.15275" lon="5.97243">
        <ele>571.213</ele>
        <time>2019-10-25T05:19:36Z</time>
      </trkpt>
      <trkpt lat="44.15275" lon="5.97243">
        <ele>571.331</ele>
        <time>2019-10-25T05:19:42Z</time>
      </trkpt>
      <trkpt lat="44.15275" lon="5.97243">
        <ele>571.538</ele>
        <time>2019-10-25T05:19:48Z</time>
      </trkpt>
      <trkpt lat="44.15275" lon="5.97243">
        <ele>571.784</ele>
        <time>2019-10-25T05:19:54Z</time>
      </trkpt>
      <trkpt lat="44.15275" lon="5.97243">
        <ele>571.865</ele>
        <time>2019-10-25T05:19:59Z</time>
      </trkpt>
      <trkpt lat="44.15275" lon="5.97243">
        <ele>571.695</ele>
        <time>2019-10-25T05:20:04Z</time>
      </trkpt>
      <trkpt lat="44.15274" lon="5.97241">
        <ele>570.842</ele>
        <time>2019-10-25T05:20:10Z</time>
      </trkpt>
      <trkpt lat="44.15274" lon="5.97241">
        <ele>570.369</ele>
        <time>2019-10-25T05:20:16Z</time>
      </trkpt>
      <trkpt lat="44.15274" lon="5.97237">
        <ele>569.689</ele>
        <time>2019-10-25T05:20:22Z</time>
      </trkpt>
      <trkpt lat="44.15276" lon="5.97235">
        <ele>569.667</ele>
        <time>2019-10-25T05:20:28Z</time>
      </trkpt>
      <trkpt lat="44.15277" lon="5.97238">
        <ele>570</ele>
        <time>2019-10-25T05:20:33Z</time>
      </trkpt>
      <trkpt lat="44.15279" lon="5.97241">
        <ele>570.432</ele>
        <time>2019-10-25T05:20:39Z</time>
      </trkpt>
      <trkpt lat="44.15286" lon="5.97248">
        <ele>571.41</ele>
        <time>2019-10-25T05:20:45Z</time>
      </trkpt>
      <trkpt lat="44.15288" lon="5.9725">
        <ele>572.051</ele>
        <time>2019-10-25T05:20:51Z</time>
      </trkpt>
      <trkpt lat="44.15288" lon="5.9725">
        <ele>572.107</ele>
        <time>2019-10-25T05:20:56Z</time>
      </trkpt>
      <trkpt lat="44.15288" lon="5.9725">
        <ele>572.253</ele>
        <time>2019-10-25T05:21:02Z</time>
      </trkpt>
      <trkpt lat="44.15288" lon="5.97249">
        <ele>572.136</ele>
        <time>2019-10-25T05:21:08Z</time>
      </trkpt>
      <trkpt lat="44.15285" lon="5.97238">
        <ele>572.249</ele>
        <time>2019-10-25T05:21:13Z</time>
      </trkpt>
      <trkpt lat="44.15277" lon="5.97216">
        <ele>572.048</ele>
        <time>2019-10-25T05:21:18Z</time>
      </trkpt>
      <trkpt lat="44.15268" lon="5.97194">
        <ele>572.086</ele>
        <time>2019-10-25T05:21:24Z</time>
      </trkpt>
      <trkpt lat="44.15263" lon="5.97179">
        <ele>572.072</ele>
        <time>2019-10-25T05:21:29Z</time>
      </trkpt>
      <trkpt lat="44.15251" lon="5.9718">
        <ele>571.381</ele>
        <time>2019-10-25T05:21:34Z</time>
      </trkpt>
      <trkpt lat="44.15229" lon="5.97193">
        <ele>569.166</ele>
        <time>2019-10-25T05:21:40Z</time>
      </trkpt>
      <trkpt lat="44.1521" lon="5.97197">
        <ele>568.913</ele>
        <time>2019-10-25T05:21:45Z</time>
      </trkpt>
      <trkpt lat="44.15198" lon="5.97167">
        <ele>567.841</ele>
        <time>2019-10-25T05:21:51Z</time>
      </trkpt>
      <trkpt lat="44.15169" lon="5.97149">
        <ele>563.134</ele>
        <time>2019-10-25T05:21:57Z</time>
      </trkpt>
      <trkpt lat="44.15129" lon="5.97166">
        <ele>563.164</ele>
        <time>2019-10-25T05:22:03Z</time>
      </trkpt>
      <trkpt lat="44.15087" lon="5.97194">
        <ele>562.007</ele>
        <time>2019-10-25T05:22:09Z</time>
      </trkpt>
      <trkpt lat="44.15045" lon="5.97219">
        <ele>560.64</ele>
        <time>2019-10-25T05:22:14Z</time>
      </trkpt>
      <trkpt lat="44.14994" lon="5.97249">
        <ele>557.545</ele>
        <time>2019-10-25T05:22:19Z</time>
      </trkpt>
      <trkpt lat="44.14928" lon="5.97274">
        <ele>552.702</ele>
        <time>2019-10-25T05:22:25Z</time>
      </trkpt>
      <trkpt lat="44.14871" lon="5.97298">
        <ele>552.394</ele>
        <time>2019-10-25T05:22:30Z</time>
      </trkpt>
      <trkpt lat="44.14806" lon="5.97324">
        <ele>544.35</ele>
        <time>2019-10-25T05:22:36Z</time>
      </trkpt>
      <trkpt lat="44.14749" lon="5.97336">
        <ele>534.616</ele>
        <time>2019-10-25T05:22:41Z</time>
      </trkpt>
      <trkpt lat="44.14686" lon="5.97338">
        <ele>528.058</ele>
        <time>2019-10-25T05:22:47Z</time>
      </trkpt>
      <trkpt lat="44.14619" lon="5.97358">
        <ele>521.695</ele>
        <time>2019-10-25T05:22:53Z</time>
      </trkpt>
      <trkpt lat="44.14571" lon="5.97383">
        <ele>515.779</ele>
        <time>2019-10-25T05:22:58Z</time>
      </trkpt>
      <trkpt lat="44.14526" lon="5.97415">
        <ele>508.259</ele>
        <time>2019-10-25T05:23:04Z</time>
      </trkpt>
      <trkpt lat="44.14503" lon="5.97429">
        <ele>506.672</ele>
        <time>2019-10-25T05:23:09Z</time>
      </trkpt>
      <trkpt lat="44.1449" lon="5.97421">
        <ele>506.428</ele>
        <time>2019-10-25T05:23:15Z</time>
      </trkpt>
      <trkpt lat="44.14494" lon="5.97406">
        <ele>506.321</ele>
        <time>2019-10-25T05:23:21Z</time>
      </trkpt>
      <trkpt lat="44.14511" lon="5.97393">
        <ele>506.1</ele>
        <time>2019-10-25T05:23:27Z</time>
      </trkpt>
      <trkpt lat="44.14527" lon="5.97378">
        <ele>506.058</ele>
        <time>2019-10-25T05:23:33Z</time>
      </trkpt>
      <trkpt lat="44.14547" lon="5.9736">
        <ele>507.952</ele>
        <time>2019-10-25T05:23:38Z</time>
      </trkpt>
      <trkpt lat="44.14567" lon="5.97342">
        <ele>507.375</ele>
        <time>2019-10-25T05:23:44Z</time>
      </trkpt>
      <trkpt lat="44.14586" lon="5.97325">
        <ele>504.395</ele>
        <time>2019-10-25T05:23:50Z</time>
      </trkpt>
      <trkpt lat="44.1461" lon="5.97306">
        <ele>506.051</ele>
        <time>2019-10-25T05:23:56Z</time>
      </trkpt>
      <trkpt lat="44.14625" lon="5.97296">
        <ele>506.253</ele>
        <time>2019-10-25T05:24:02Z</time>
      </trkpt>
      <trkpt lat="44.14643" lon="5.97284">
        <ele>504.357</ele>
        <time>2019-10-25T05:24:07Z</time>
      </trkpt>
      <trkpt lat="44.1466" lon="5.97269">
        <ele>503.814</ele>
        <time>2019-10-25T05:24:12Z</time>
      </trkpt>
      <trkpt lat="44.14684" lon="5.97249">
        <ele>504.415</ele>
        <time>2019-10-25T05:24:18Z</time>
      </trkpt>
      <trkpt lat="44.14706" lon="5.97231">
        <ele>503.607</ele>
        <time>2019-10-25T05:24:24Z</time>
      </trkpt>
      <trkpt lat="44.14724" lon="5.97217">
        <ele>504.743</ele>
        <time>2019-10-25T05:24:29Z</time>
      </trkpt>
      <trkpt lat="44.14748" lon="5.97198">
        <ele>502.545</ele>
        <time>2019-10-25T05:24:35Z</time>
      </trkpt>
      <trkpt lat="44.14775" lon="5.97177">
        <ele>503.81</ele>
        <time>2019-10-25T05:24:41Z</time>
      </trkpt>
      <trkpt lat="44.148" lon="5.97161">
        <ele>504.001</ele>
        <time>2019-10-25T05:24:47Z</time>
      </trkpt>
      <trkpt lat="44.14822" lon="5.97148">
        <ele>504.397</ele>
        <time>2019-10-25T05:24:52Z</time>
      </trkpt>
      <trkpt lat="44.14847" lon="5.97134">
        <ele>504.456</ele>
        <time>2019-10-25T05:24:58Z</time>
      </trkpt>
      <trkpt lat="44.14869" lon="5.97121">
        <ele>504.714</ele>
        <time>2019-10-25T05:25:03Z</time>
      </trkpt>
      <trkpt lat="44.14893" lon="5.97106">
        <ele>504.171</ele>
        <time>2019-10-25T05:25:09Z</time>
      </trkpt>
      <trkpt lat="44.14917" lon="5.97092">
        <ele>502.196</ele>
        <time>2019-10-25T05:25:15Z</time>
      </trkpt>
      <trkpt lat="44.14939" lon="5.97078">
        <ele>502.959</ele>
        <time>2019-10-25T05:25:21Z</time>
      </trkpt>
      <trkpt lat="44.14951" lon="5.97071">
        <ele>503.093</ele>
        <time>2019-10-25T05:25:26Z</time>
      </trkpt>
      <trkpt lat="44.14971" lon="5.97059">
        <ele>505.846</ele>
        <time>2019-10-25T05:25:32Z</time>
      </trkpt>
      <trkpt lat="44.14994" lon="5.97046">
        <ele>507.036</ele>
        <time>2019-10-25T05:25:38Z</time>
      </trkpt>
      <trkpt lat="44.15014" lon="5.97036">
        <ele>506.498</ele>
        <time>2019-10-25T05:25:43Z</time>
      </trkpt>
      <trkpt lat="44.1504" lon="5.97021">
        <ele>506.766</ele>
        <time>2019-10-25T05:25:49Z</time>
      </trkpt>
      <trkpt lat="44.15058" lon="5.97008">
        <ele>506.333</ele>
        <time>2019-10-25T05:25:54Z</time>
      </trkpt>
      <trkpt lat="44.15081" lon="5.9699">
        <ele>505.781</ele>
        <time>2019-10-25T05:26:00Z</time>
      </trkpt>
      <trkpt lat="44.151" lon="5.96978">
        <ele>505.492</ele>
        <time>2019-10-25T05:26:05Z</time>
      </trkpt>
      <trkpt lat="44.15119" lon="5.96964">
        <ele>505.162</ele>
        <time>2019-10-25T05:26:10Z</time>
      </trkpt>
      <trkpt lat="44.15142" lon="5.96945">
        <ele>506.244</ele>
        <time>2019-10-25T05:26:16Z</time>
      </trkpt>
      <trkpt lat="44.15166" lon="5.96925">
        <ele>505.89</ele>
        <time>2019-10-25T05:26:22Z</time>
      </trkpt>
      <trkpt lat="44.15189" lon="5.96907">
        <ele>509.899</ele>
        <time>2019-10-25T05:26:28Z</time>
      </trkpt>
      <trkpt lat="44.15213" lon="5.96891">
        <ele>509.805</ele>
        <time>2019-10-25T05:26:34Z</time>
      </trkpt>
      <trkpt lat="44.1523" lon="5.9688">
        <ele>509.282</ele>
        <time>2019-10-25T05:26:39Z</time>
      </trkpt>
      <trkpt lat="44.15254" lon="5.96862">
        <ele>507.056</ele>
        <time>2019-10-25T05:26:45Z</time>
      </trkpt>
      <trkpt lat="44.15273" lon="5.96847">
        <ele>506.223</ele>
        <time>2019-10-25T05:26:51Z</time>
      </trkpt>
      <trkpt lat="44.15288" lon="5.96835">
        <ele>505.218</ele>
        <time>2019-10-25T05:26:56Z</time>
      </trkpt>
      <trkpt lat="44.15303" lon="5.9682">
        <ele>503.209</ele>
        <time>2019-10-25T05:27:01Z</time>
      </trkpt>
      <trkpt lat="44.15323" lon="5.96802">
        <ele>502.862</ele>
        <time>2019-10-25T05:27:07Z</time>
      </trkpt>
      <trkpt lat="44.15342" lon="5.96787">
        <ele>502.559</ele>
        <time>2019-10-25T05:27:12Z</time>
      </trkpt>
      <trkpt lat="44.15365" lon="5.96766">
        <ele>501.211</ele>
        <time>2019-10-25T05:27:18Z</time>
      </trkpt>
      <trkpt lat="44.15382" lon="5.96747">
        <ele>501.748</ele>
        <time>2019-10-25T05:27:23Z</time>
      </trkpt>
      <trkpt lat="44.15402" lon="5.96719">
        <ele>500.602</ele>
        <time>2019-10-25T05:27:29Z</time>
      </trkpt>
      <trkpt lat="44.15417" lon="5.96694">
        <ele>502.275</ele>
        <time>2019-10-25T05:27:34Z</time>
      </trkpt>
      <trkpt lat="44.15437" lon="5.9666">
        <ele>504.351</ele>
        <time>2019-10-25T05:27:40Z</time>
      </trkpt>
      <trkpt lat="44.15451" lon="5.96629">
        <ele>504.085</ele>
        <time>2019-10-25T05:27:45Z</time>
      </trkpt>
      <trkpt lat="44.15464" lon="5.96591">
        <ele>505.654</ele>
        <time>2019-10-25T05:27:51Z</time>
      </trkpt>
      <trkpt lat="44.15474" lon="5.96557">
        <ele>506.599</ele>
        <time>2019-10-25T05:27:56Z</time>
      </trkpt>
      <trkpt lat="44.15482" lon="5.96526">
        <ele>507.904</ele>
        <time>2019-10-25T05:28:01Z</time>
      </trkpt>
      <trkpt lat="44.15495" lon="5.9649">
        <ele>507.127</ele>
        <time>2019-10-25T05:28:07Z</time>
      </trkpt>
      <trkpt lat="44.15512" lon="5.9647">
        <ele>506.321</ele>
        <time>2019-10-25T05:28:12Z</time>
      </trkpt>
      <trkpt lat="44.15528" lon="5.9644">
        <ele>508.968</ele>
        <time>2019-10-25T05:28:18Z</time>
      </trkpt>
      <trkpt lat="44.15544" lon="5.96405">
        <ele>508.948</ele>
        <time>2019-10-25T05:28:24Z</time>
      </trkpt>
      <trkpt lat="44.15555" lon="5.96373">
        <ele>509.15</ele>
        <time>2019-10-25T05:28:29Z</time>
      </trkpt>
      <trkpt lat="44.15579" lon="5.96341">
        <ele>510.928</ele>
        <time>2019-10-25T05:28:35Z</time>
      </trkpt>
      <trkpt lat="44.156" lon="5.96317">
        <ele>510.733</ele>
        <time>2019-10-25T05:28:40Z</time>
      </trkpt>
      <trkpt lat="44.15625" lon="5.9629">
        <ele>508.51</ele>
        <time>2019-10-25T05:28:46Z</time>
      </trkpt>
      <trkpt lat="44.15645" lon="5.9627">
        <ele>506.457</ele>
        <time>2019-10-25T05:28:51Z</time>
      </trkpt>
      <trkpt lat="44.15661" lon="5.96251">
        <ele>506.199</ele>
        <time>2019-10-25T05:28:56Z</time>
      </trkpt>
      <trkpt lat="44.15681" lon="5.96224">
        <ele>508.513</ele>
        <time>2019-10-25T05:29:02Z</time>
      </trkpt>
      <trkpt lat="44.15701" lon="5.96197">
        <ele>509.979</ele>
        <time>2019-10-25T05:29:08Z</time>
      </trkpt>
      <trkpt lat="44.15723" lon="5.96172">
        <ele>509.433</ele>
        <time>2019-10-25T05:29:14Z</time>
      </trkpt>
      <trkpt lat="44.15741" lon="5.96153">
        <ele>507.539</ele>
        <time>2019-10-25T05:29:19Z</time>
      </trkpt>
      <trkpt lat="44.15758" lon="5.96131">
        <ele>509.37</ele>
        <time>2019-10-25T05:29:24Z</time>
      </trkpt>
      <trkpt lat="44.15779" lon="5.96106">
        <ele>511.36</ele>
        <time>2019-10-25T05:29:30Z</time>
      </trkpt>
      <trkpt lat="44.15798" lon="5.96083">
        <ele>511.882</ele>
        <time>2019-10-25T05:29:36Z</time>
      </trkpt>
      <trkpt lat="44.15818" lon="5.9606">
        <ele>512.033</ele>
        <time>2019-10-25T05:29:41Z</time>
      </trkpt>
      <trkpt lat="44.1584" lon="5.96035">
        <ele>512.779</ele>
        <time>2019-10-25T05:29:47Z</time>
      </trkpt>
      <trkpt lat="44.15861" lon="5.96013">
        <ele>511.825</ele>
        <time>2019-10-25T05:29:53Z</time>
      </trkpt>
      <trkpt lat="44.15874" lon="5.95999">
        <ele>511.714</ele>
        <time>2019-10-25T05:29:58Z</time>
      </trkpt>
      <trkpt lat="44.15884" lon="5.96003">
        <ele>511.398</ele>
        <time>2019-10-25T05:30:04Z</time>
      </trkpt>
      <trkpt lat="44.15896" lon="5.96001">
        <ele>511.13</ele>
        <time>2019-10-25T05:30:10Z</time>
      </trkpt>
      <trkpt lat="44.15908" lon="5.95991">
        <ele>510.922</ele>
        <time>2019-10-25T05:30:16Z</time>
      </trkpt>
      <trkpt lat="44.15907" lon="5.95979">
        <ele>510.931</ele>
        <time>2019-10-25T05:30:22Z</time>
      </trkpt>
      <trkpt lat="44.1591" lon="5.95961">
        <ele>511.276</ele>
        <time>2019-10-25T05:30:28Z</time>
      </trkpt>
      <trkpt lat="44.15924" lon="5.95946">
        <ele>511.633</ele>
        <time>2019-10-25T05:30:33Z</time>
      </trkpt>
      <trkpt lat="44.15941" lon="5.9593">
        <ele>512.589</ele>
        <time>2019-10-25T05:30:39Z</time>
      </trkpt>
      <trkpt lat="44.15964" lon="5.95916">
        <ele>512.718</ele>
        <time>2019-10-25T05:30:45Z</time>
      </trkpt>
      <trkpt lat="44.1599" lon="5.95901">
        <ele>514.958</ele>
        <time>2019-10-25T05:30:51Z</time>
      </trkpt>
      <trkpt lat="44.16018" lon="5.95886">
        <ele>512.317</ele>
        <time>2019-10-25T05:30:57Z</time>
      </trkpt>
      <trkpt lat="44.16038" lon="5.95875">
        <ele>510.671</ele>
        <time>2019-10-25T05:31:02Z</time>
      </trkpt>
      <trkpt lat="44.16065" lon="5.9586">
        <ele>510.752</ele>
        <time>2019-10-25T05:31:08Z</time>
      </trkpt>
      <trkpt lat="44.16088" lon="5.95848">
        <ele>512.354</ele>
        <time>2019-10-25T05:31:13Z</time>
      </trkpt>
      <trkpt lat="44.16114" lon="5.95835">
        <ele>514.285</ele>
        <time>2019-10-25T05:31:19Z</time>
      </trkpt>
      <trkpt lat="44.16135" lon="5.95825">
        <ele>516.596</ele>
        <time>2019-10-25T05:31:24Z</time>
      </trkpt>
      <trkpt lat="44.16162" lon="5.9581">
        <ele>516.137</ele>
        <time>2019-10-25T05:31:30Z</time>
      </trkpt>
      <trkpt lat="44.16184" lon="5.95795">
        <ele>514.315</ele>
        <time>2019-10-25T05:31:36Z</time>
      </trkpt>
      <trkpt lat="44.16205" lon="5.95781">
        <ele>511.624</ele>
        <time>2019-10-25T05:31:41Z</time>
      </trkpt>
      <trkpt lat="44.16228" lon="5.95766">
        <ele>508.46</ele>
        <time>2019-10-25T05:31:47Z</time>
      </trkpt>
      <trkpt lat="44.16247" lon="5.95755">
        <ele>507.952</ele>
        <time>2019-10-25T05:31:52Z</time>
      </trkpt>
      <trkpt lat="44.16272" lon="5.95743">
        <ele>510.535</ele>
        <time>2019-10-25T05:31:58Z</time>
      </trkpt>
      <trkpt lat="44.16299" lon="5.95728">
        <ele>512.408</ele>
        <time>2019-10-25T05:32:04Z</time>
      </trkpt>
      <trkpt lat="44.1632" lon="5.95717">
        <ele>513.061</ele>
        <time>2019-10-25T05:32:09Z</time>
      </trkpt>
      <trkpt lat="44.16345" lon="5.95702">
        <ele>514.689</ele>
        <time>2019-10-25T05:32:15Z</time>
      </trkpt>
      <trkpt lat="44.16364" lon="5.95691">
        <ele>514.321</ele>
        <time>2019-10-25T05:32:20Z</time>
      </trkpt>
      <trkpt lat="44.16384" lon="5.9568">
        <ele>514.111</ele>
        <time>2019-10-25T05:32:25Z</time>
      </trkpt>
      <trkpt lat="44.16406" lon="5.9567">
        <ele>513.823</ele>
        <time>2019-10-25T05:32:30Z</time>
      </trkpt>
      <trkpt lat="44.16432" lon="5.95657">
        <ele>514.847</ele>
        <time>2019-10-25T05:32:36Z</time>
      </trkpt>
      <trkpt lat="44.16457" lon="5.95643">
        <ele>515.04</ele>
        <time>2019-10-25T05:32:42Z</time>
      </trkpt>
      <trkpt lat="44.16481" lon="5.95629">
        <ele>515.023</ele>
        <time>2019-10-25T05:32:48Z</time>
      </trkpt>
      <trkpt lat="44.16503" lon="5.95618">
        <ele>514.895</ele>
        <time>2019-10-25T05:32:53Z</time>
      </trkpt>
      <trkpt lat="44.16527" lon="5.95606">
        <ele>515.24</ele>
        <time>2019-10-25T05:32:58Z</time>
      </trkpt>
      <trkpt lat="44.16551" lon="5.95591">
        <ele>515.145</ele>
        <time>2019-10-25T05:33:04Z</time>
      </trkpt>
      <trkpt lat="44.16572" lon="5.95578">
        <ele>515.726</ele>
        <time>2019-10-25T05:33:09Z</time>
      </trkpt>
      <trkpt lat="44.16596" lon="5.95565">
        <ele>516.616</ele>
        <time>2019-10-25T05:33:15Z</time>
      </trkpt>
      <trkpt lat="44.1662" lon="5.95552">
        <ele>516.413</ele>
        <time>2019-10-25T05:33:21Z</time>
      </trkpt>
      <trkpt lat="44.16644" lon="5.95535">
        <ele>513.684</ele>
        <time>2019-10-25T05:33:27Z</time>
      </trkpt>
      <trkpt lat="44.16665" lon="5.95523">
        <ele>514.995</ele>
        <time>2019-10-25T05:33:32Z</time>
      </trkpt>
      <trkpt lat="44.16692" lon="5.95508">
        <ele>514.424</ele>
        <time>2019-10-25T05:33:38Z</time>
      </trkpt>
      <trkpt lat="44.16714" lon="5.95497">
        <ele>515.167</ele>
        <time>2019-10-25T05:33:43Z</time>
      </trkpt>
      <trkpt lat="44.16734" lon="5.95485">
        <ele>512.839</ele>
        <time>2019-10-25T05:33:48Z</time>
      </trkpt>
      <trkpt lat="44.16759" lon="5.95473">
        <ele>512.556</ele>
        <time>2019-10-25T05:33:54Z</time>
      </trkpt>
      <trkpt lat="44.16782" lon="5.9546">
        <ele>510.495</ele>
        <time>2019-10-25T05:33:59Z</time>
      </trkpt>
      <trkpt lat="44.16808" lon="5.95446">
        <ele>509.95</ele>
        <time>2019-10-25T05:34:05Z</time>
      </trkpt>
      <trkpt lat="44.16829" lon="5.95432">
        <ele>512.303</ele>
        <time>2019-10-25T05:34:10Z</time>
      </trkpt>
      <trkpt lat="44.16851" lon="5.95421">
        <ele>516.521</ele>
        <time>2019-10-25T05:34:15Z</time>
      </trkpt>
      <trkpt lat="44.16876" lon="5.9541">
        <ele>517.85</ele>
        <time>2019-10-25T05:34:21Z</time>
      </trkpt>
      <trkpt lat="44.16898" lon="5.95404">
        <ele>518.111</ele>
        <time>2019-10-25T05:34:27Z</time>
      </trkpt>
      <trkpt lat="44.16912" lon="5.95412">
        <ele>518.21</ele>
        <time>2019-10-25T05:34:32Z</time>
      </trkpt>
      <trkpt lat="44.16932" lon="5.95407">
        <ele>518.125</ele>
        <time>2019-10-25T05:34:38Z</time>
      </trkpt>
      <trkpt lat="44.16948" lon="5.95392">
        <ele>517.403</ele>
        <time>2019-10-25T05:34:43Z</time>
      </trkpt>
      <trkpt lat="44.16965" lon="5.95381">
        <ele>513.309</ele>
        <time>2019-10-25T05:34:48Z</time>
      </trkpt>
      <trkpt lat="44.16987" lon="5.95368">
        <ele>509.162</ele>
        <time>2019-10-25T05:34:54Z</time>
      </trkpt>
      <trkpt lat="44.17007" lon="5.95361">
        <ele>508.35</ele>
        <time>2019-10-25T05:34:59Z</time>
      </trkpt>
      <trkpt lat="44.1703" lon="5.95356">
        <ele>509.053</ele>
        <time>2019-10-25T05:35:05Z</time>
      </trkpt>
      <trkpt lat="44.17053" lon="5.95352">
        <ele>507</ele>
        <time>2019-10-25T05:35:10Z</time>
      </trkpt>
      <trkpt lat="44.17083" lon="5.95352">
        <ele>509.489</ele>
        <time>2019-10-25T05:35:16Z</time>
      </trkpt>
      <trkpt lat="44.17108" lon="5.9535">
        <ele>507.473</ele>
        <time>2019-10-25T05:35:21Z</time>
      </trkpt>
      <trkpt lat="44.17137" lon="5.95345">
        <ele>504.668</ele>
        <time>2019-10-25T05:35:27Z</time>
      </trkpt>
      <trkpt lat="44.17159" lon="5.9534">
        <ele>505.649</ele>
        <time>2019-10-25T05:35:32Z</time>
      </trkpt>
      <trkpt lat="44.17187" lon="5.95335">
        <ele>506.075</ele>
        <time>2019-10-25T05:35:38Z</time>
      </trkpt>
      <trkpt lat="44.17215" lon="5.95331">
        <ele>508.249</ele>
        <time>2019-10-25T05:35:44Z</time>
      </trkpt>
      <trkpt lat="44.17244" lon="5.95327">
        <ele>509.087</ele>
        <time>2019-10-25T05:35:50Z</time>
      </trkpt>
      <trkpt lat="44.17272" lon="5.95321">
        <ele>508.181</ele>
        <time>2019-10-25T05:35:56Z</time>
      </trkpt>
      <trkpt lat="44.17297" lon="5.95318">
        <ele>507.695</ele>
        <time>2019-10-25T05:36:01Z</time>
      </trkpt>
      <trkpt lat="44.1732" lon="5.95314">
        <ele>509.29</ele>
        <time>2019-10-25T05:36:06Z</time>
      </trkpt>
      <trkpt lat="44.17345" lon="5.95314">
        <ele>510.227</ele>
        <time>2019-10-25T05:36:12Z</time>
      </trkpt>
      <trkpt lat="44.17361" lon="5.95314">
        <ele>510.89</ele>
        <time>2019-10-25T05:36:17Z</time>
      </trkpt>
      <trkpt lat="44.17385" lon="5.95314">
        <ele>509.357</ele>
        <time>2019-10-25T05:36:23Z</time>
      </trkpt>
      <trkpt lat="44.17404" lon="5.95315">
        <ele>508.336</ele>
        <time>2019-10-25T05:36:28Z</time>
      </trkpt>
      <trkpt lat="44.17425" lon="5.95319">
        <ele>510.066</ele>
        <time>2019-10-25T05:36:33Z</time>
      </trkpt>
      <trkpt lat="44.17446" lon="5.95323">
        <ele>512.3</ele>
        <time>2019-10-25T05:36:38Z</time>
      </trkpt>
      <trkpt lat="44.17469" lon="5.95332">
        <ele>512.224</ele>
        <time>2019-10-25T05:36:44Z</time>
      </trkpt>
      <trkpt lat="44.17483" lon="5.95341">
        <ele>512.374</ele>
        <time>2019-10-25T05:36:49Z</time>
      </trkpt>
      <trkpt lat="44.17494" lon="5.95346">
        <ele>512.795</ele>
        <time>2019-10-25T05:36:54Z</time>
      </trkpt>
      <trkpt lat="44.17499" lon="5.95347">
        <ele>513.11</ele>
        <time>2019-10-25T05:36:59Z</time>
      </trkpt>
      <trkpt lat="44.17502" lon="5.95346">
        <ele>513.316</ele>
        <time>2019-10-25T05:37:05Z</time>
      </trkpt>
      <trkpt lat="44.17506" lon="5.95318">
        <ele>511.58</ele>
        <time>2019-10-25T05:37:10Z</time>
      </trkpt>
      <trkpt lat="44.17513" lon="5.95281">
        <ele>510.626</ele>
        <time>2019-10-25T05:37:15Z</time>
      </trkpt>
      <trkpt lat="44.1752" lon="5.95235">
        <ele>510.464</ele>
        <time>2019-10-25T05:37:21Z</time>
      </trkpt>
      <trkpt lat="44.17528" lon="5.95188">
        <ele>505.884</ele>
        <time>2019-10-25T05:37:27Z</time>
      </trkpt>
      <trkpt lat="44.17534" lon="5.9514">
        <ele>505.399</ele>
        <time>2019-10-25T05:37:33Z</time>
      </trkpt>
      <trkpt lat="44.17539" lon="5.95099">
        <ele>506.988</ele>
        <time>2019-10-25T05:37:38Z</time>
      </trkpt>
      <trkpt lat="44.17549" lon="5.95053">
        <ele>513.303</ele>
        <time>2019-10-25T05:37:44Z</time>
      </trkpt>
      <trkpt lat="44.1756" lon="5.9502">
        <ele>512.877</ele>
        <time>2019-10-25T05:37:49Z</time>
      </trkpt>
      <trkpt lat="44.17566" lon="5.94988">
        <ele>515.041</ele>
        <time>2019-10-25T05:37:55Z</time>
      </trkpt>
      <trkpt lat="44.17573" lon="5.94962">
        <ele>514.968</ele>
        <time>2019-10-25T05:38:01Z</time>
      </trkpt>
      <trkpt lat="44.17579" lon="5.94943">
        <ele>514.524</ele>
        <time>2019-10-25T05:38:07Z</time>
      </trkpt>
      <trkpt lat="44.17586" lon="5.94932">
        <ele>514.241</ele>
        <time>2019-10-25T05:38:12Z</time>
      </trkpt>
      <trkpt lat="44.17599" lon="5.94926">
        <ele>514.223</ele>
        <time>2019-10-25T05:38:18Z</time>
      </trkpt>
      <trkpt lat="44.1761" lon="5.94923">
        <ele>514.277</ele>
        <time>2019-10-25T05:38:23Z</time>
      </trkpt>
      <trkpt lat="44.17623" lon="5.94926">
        <ele>515.289</ele>
        <time>2019-10-25T05:38:28Z</time>
      </trkpt>
      <trkpt lat="44.17636" lon="5.9493">
        <ele>515.111</ele>
        <time>2019-10-25T05:38:34Z</time>
      </trkpt>
      <trkpt lat="44.17649" lon="5.94937">
        <ele>515.112</ele>
        <time>2019-10-25T05:38:39Z</time>
      </trkpt>
      <trkpt lat="44.17666" lon="5.94944">
        <ele>515.51</ele>
        <time>2019-10-25T05:38:45Z</time>
      </trkpt>
      <trkpt lat="44.17678" lon="5.94947">
        <ele>515.734</ele>
        <time>2019-10-25T05:38:50Z</time>
      </trkpt>
      <trkpt lat="44.17692" lon="5.9495">
        <ele>516.233</ele>
        <time>2019-10-25T05:38:55Z</time>
      </trkpt>
      <trkpt lat="44.17704" lon="5.94952">
        <ele>516.845</ele>
        <time>2019-10-25T05:39:00Z</time>
      </trkpt>
      <trkpt lat="44.17722" lon="5.94956">
        <ele>517.623</ele>
        <time>2019-10-25T05:39:06Z</time>
      </trkpt>
      <trkpt lat="44.1774" lon="5.94959">
        <ele>518.66</ele>
        <time>2019-10-25T05:39:11Z</time>
      </trkpt>
      <trkpt lat="44.17761" lon="5.94963">
        <ele>521.433</ele>
        <time>2019-10-25T05:39:17Z</time>
      </trkpt>
      <trkpt lat="44.17781" lon="5.94965">
        <ele>526.079</ele>
        <time>2019-10-25T05:39:22Z</time>
      </trkpt>
      <trkpt lat="44.17806" lon="5.9497">
        <ele>528.972</ele>
        <time>2019-10-25T05:39:28Z</time>
      </trkpt>
      <trkpt lat="44.17832" lon="5.94973">
        <ele>530.952</ele>
        <time>2019-10-25T05:39:34Z</time>
      </trkpt>
      <trkpt lat="44.17858" lon="5.94979">
        <ele>531.551</ele>
        <time>2019-10-25T05:39:40Z</time>
      </trkpt>
      <trkpt lat="44.17879" lon="5.9499">
        <ele>532.375</ele>
        <time>2019-10-25T05:39:45Z</time>
      </trkpt>
      <trkpt lat="44.17905" lon="5.94996">
        <ele>532.6</ele>
        <time>2019-10-25T05:39:51Z</time>
      </trkpt>
      <trkpt lat="44.17929" lon="5.94997">
        <ele>535.387</ele>
        <time>2019-10-25T05:39:56Z</time>
      </trkpt>
      <trkpt lat="44.17958" lon="5.94996">
        <ele>534.562</ele>
        <time>2019-10-25T05:40:02Z</time>
      </trkpt>
      <trkpt lat="44.17984" lon="5.94997">
        <ele>537.579</ele>
        <time>2019-10-25T05:40:08Z</time>
      </trkpt>
      <trkpt lat="44.18009" lon="5.94998">
        <ele>542.442</ele>
        <time>2019-10-25T05:40:13Z</time>
      </trkpt>
      <trkpt lat="44.18042" lon="5.95002">
        <ele>540.298</ele>
        <time>2019-10-25T05:40:19Z</time>
      </trkpt>
      <trkpt lat="44.1807" lon="5.95005">
        <ele>539.579</ele>
        <time>2019-10-25T05:40:24Z</time>
      </trkpt>
      <trkpt lat="44.18103" lon="5.95005">
        <ele>536.647</ele>
        <time>2019-10-25T05:40:30Z</time>
      </trkpt>
      <trkpt lat="44.18131" lon="5.95003">
        <ele>533.16</ele>
        <time>2019-10-25T05:40:35Z</time>
      </trkpt>
      <trkpt lat="44.18158" lon="5.95003">
        <ele>534.015</ele>
        <time>2019-10-25T05:40:40Z</time>
      </trkpt>
      <trkpt lat="44.18185" lon="5.95003">
        <ele>536.078</ele>
        <time>2019-10-25T05:40:45Z</time>
      </trkpt>
      <trkpt lat="44.18218" lon="5.94999">
        <ele>535.674</ele>
        <time>2019-10-25T05:40:51Z</time>
      </trkpt>
      <trkpt lat="44.1825" lon="5.94997">
        <ele>535.562</ele>
        <time>2019-10-25T05:40:57Z</time>
      </trkpt>
      <trkpt lat="44.18276" lon="5.94996">
        <ele>532.135</ele>
        <time>2019-10-25T05:41:03Z</time>
      </trkpt>
      <trkpt lat="44.18306" lon="5.94989">
        <ele>527.907</ele>
        <time>2019-10-25T05:41:09Z</time>
      </trkpt>
      <trkpt lat="44.18332" lon="5.94983">
        <ele>529.128</ele>
        <time>2019-10-25T05:41:14Z</time>
      </trkpt>
      <trkpt lat="44.18364" lon="5.94978">
        <ele>532.51</ele>
        <time>2019-10-25T05:41:20Z</time>
      </trkpt>
      <trkpt lat="44.18392" lon="5.94971">
        <ele>533.359</ele>
        <time>2019-10-25T05:41:26Z</time>
      </trkpt>
      <trkpt lat="44.18425" lon="5.94962">
        <ele>532.264</ele>
        <time>2019-10-25T05:41:32Z</time>
      </trkpt>
      <trkpt lat="44.18453" lon="5.94955">
        <ele>529.299</ele>
        <time>2019-10-25T05:41:38Z</time>
      </trkpt>
      <trkpt lat="44.18484" lon="5.94947">
        <ele>529.444</ele>
        <time>2019-10-25T05:41:44Z</time>
      </trkpt>
      <trkpt lat="44.18512" lon="5.94938">
        <ele>529.018</ele>
        <time>2019-10-25T05:41:49Z</time>
      </trkpt>
      <trkpt lat="44.18545" lon="5.9493">
        <ele>529.418</ele>
        <time>2019-10-25T05:41:55Z</time>
      </trkpt>
      <trkpt lat="44.18573" lon="5.94922">
        <ele>529.935</ele>
        <time>2019-10-25T05:42:00Z</time>
      </trkpt>
      <trkpt lat="44.18602" lon="5.94913">
        <ele>529.259</ele>
        <time>2019-10-25T05:42:05Z</time>
      </trkpt>
      <trkpt lat="44.18628" lon="5.94903">
        <ele>529.278</ele>
        <time>2019-10-25T05:42:10Z</time>
      </trkpt>
      <trkpt lat="44.18657" lon="5.94891">
        <ele>528.628</ele>
        <time>2019-10-25T05:42:16Z</time>
      </trkpt>
      <trkpt lat="44.18689" lon="5.94876">
        <ele>528.328</ele>
        <time>2019-10-25T05:42:22Z</time>
      </trkpt>
      <trkpt lat="44.18712" lon="5.94864">
        <ele>527.46</ele>
        <time>2019-10-25T05:42:27Z</time>
      </trkpt>
      <trkpt lat="44.18743" lon="5.9485">
        <ele>526.509</ele>
        <time>2019-10-25T05:42:33Z</time>
      </trkpt>
      <trkpt lat="44.18768" lon="5.94841">
        <ele>527.711</ele>
        <time>2019-10-25T05:42:38Z</time>
      </trkpt>
      <trkpt lat="44.18798" lon="5.94828">
        <ele>526.169</ele>
        <time>2019-10-25T05:42:44Z</time>
      </trkpt>
      <trkpt lat="44.18827" lon="5.94812">
        <ele>524.872</ele>
        <time>2019-10-25T05:42:50Z</time>
      </trkpt>
      <trkpt lat="44.18849" lon="5.948">
        <ele>525.379</ele>
        <time>2019-10-25T05:42:55Z</time>
      </trkpt>
      <trkpt lat="44.18872" lon="5.9479">
        <ele>524.326</ele>
        <time>2019-10-25T05:43:00Z</time>
      </trkpt>
      <trkpt lat="44.18901" lon="5.94776">
        <ele>523.677</ele>
        <time>2019-10-25T05:43:06Z</time>
      </trkpt>
      <trkpt lat="44.18927" lon="5.94779">
        <ele>527.214</ele>
        <time>2019-10-25T05:43:12Z</time>
      </trkpt>
      <trkpt lat="44.18952" lon="5.94783">
        <ele>528.599</ele>
        <time>2019-10-25T05:43:17Z</time>
      </trkpt>
      <trkpt lat="44.18981" lon="5.94784">
        <ele>529.099</ele>
        <time>2019-10-25T05:43:23Z</time>
      </trkpt>
      <trkpt lat="44.19008" lon="5.94788">
        <ele>529.66</ele>
        <time>2019-10-25T05:43:28Z</time>
      </trkpt>
      <trkpt lat="44.1904" lon="5.94791">
        <ele>525.868</ele>
        <time>2019-10-25T05:43:34Z</time>
      </trkpt>
      <trkpt lat="44.19064" lon="5.94787">
        <ele>525.766</ele>
        <time>2019-10-25T05:43:39Z</time>
      </trkpt>
      <trkpt lat="44.19094" lon="5.94777">
        <ele>525.354</ele>
        <time>2019-10-25T05:43:45Z</time>
      </trkpt>
      <trkpt lat="44.19121" lon="5.94765">
        <ele>525.626</ele>
        <time>2019-10-25T05:43:51Z</time>
      </trkpt>
      <trkpt lat="44.19151" lon="5.94753">
        <ele>525.982</ele>
        <time>2019-10-25T05:43:57Z</time>
      </trkpt>
      <trkpt lat="44.19172" lon="5.9475">
        <ele>527.079</ele>
        <time>2019-10-25T05:44:02Z</time>
      </trkpt>
      <trkpt lat="44.19187" lon="5.94714">
        <ele>526.104</ele>
        <time>2019-10-25T05:44:08Z</time>
      </trkpt>
      <trkpt lat="44.19199" lon="5.94677">
        <ele>524.303</ele>
        <time>2019-10-25T05:44:13Z</time>
      </trkpt>
      <trkpt lat="44.19217" lon="5.94645">
        <ele>525.424</ele>
        <time>2019-10-25T05:44:18Z</time>
      </trkpt>
      <trkpt lat="44.19244" lon="5.94611">
        <ele>529.438</ele>
        <time>2019-10-25T05:44:24Z</time>
      </trkpt>
      <trkpt lat="44.19276" lon="5.94581">
        <ele>528.347</ele>
        <time>2019-10-25T05:44:30Z</time>
      </trkpt>
      <trkpt lat="44.19299" lon="5.94559">
        <ele>528.556</ele>
        <time>2019-10-25T05:44:35Z</time>
      </trkpt>
      <trkpt lat="44.19326" lon="5.94533">
        <ele>526.409</ele>
        <time>2019-10-25T05:44:41Z</time>
      </trkpt>
      <trkpt lat="44.19348" lon="5.94513">
        <ele>524.647</ele>
        <time>2019-10-25T05:44:47Z</time>
      </trkpt>
      <trkpt lat="44.19365" lon="5.94505">
        <ele>523.162</ele>
        <time>2019-10-25T05:44:52Z</time>
      </trkpt>
      <trkpt lat="44.19392" lon="5.94492">
        <ele>521.724</ele>
        <time>2019-10-25T05:44:58Z</time>
      </trkpt>
      <trkpt lat="44.19415" lon="5.94487">
        <ele>524.393</ele>
        <time>2019-10-25T05:45:04Z</time>
      </trkpt>
      <trkpt lat="44.19438" lon="5.94482">
        <ele>530.374</ele>
        <time>2019-10-25T05:45:10Z</time>
      </trkpt>
      <trkpt lat="44.19463" lon="5.94489">
        <ele>533.091</ele>
        <time>2019-10-25T05:45:16Z</time>
      </trkpt>
      <trkpt lat="44.19486" lon="5.94477">
        <ele>530.077</ele>
        <time>2019-10-25T05:45:22Z</time>
      </trkpt>
      <trkpt lat="44.19495" lon="5.94448">
        <ele>530.261</ele>
        <time>2019-10-25T05:45:28Z</time>
      </trkpt>
      <trkpt lat="44.19506" lon="5.94428">
        <ele>530.246</ele>
        <time>2019-10-25T05:45:34Z</time>
      </trkpt>
      <trkpt lat="44.19514" lon="5.94405">
        <ele>530.644</ele>
        <time>2019-10-25T05:45:39Z</time>
      </trkpt>
      <trkpt lat="44.1952" lon="5.94385">
        <ele>530.856</ele>
        <time>2019-10-25T05:45:45Z</time>
      </trkpt>
      <trkpt lat="44.1953" lon="5.94373">
        <ele>530.74</ele>
        <time>2019-10-25T05:45:50Z</time>
      </trkpt>
      <trkpt lat="44.19544" lon="5.94369">
        <ele>531.028</ele>
        <time>2019-10-25T05:45:56Z</time>
      </trkpt>
      <trkpt lat="44.1956" lon="5.9439">
        <ele>534.037</ele>
        <time>2019-10-25T05:46:01Z</time>
      </trkpt>
      <trkpt lat="44.19578" lon="5.94397">
        <ele>534.626</ele>
        <time>2019-10-25T05:46:07Z</time>
      </trkpt>
      <trkpt lat="44.19591" lon="5.94432">
        <ele>531.616</ele>
        <time>2019-10-25T05:46:12Z</time>
      </trkpt>
      <trkpt lat="44.19642" lon="5.94465">
        <ele>529.231</ele>
        <time>2019-10-25T05:46:18Z</time>
      </trkpt>
      <trkpt lat="44.19671" lon="5.94475">
        <ele>528.6</ele>
        <time>2019-10-25T05:46:24Z</time>
      </trkpt>
      <trkpt lat="44.19695" lon="5.94478">
        <ele>528.45</ele>
        <time>2019-10-25T05:46:30Z</time>
      </trkpt>
      <trkpt lat="44.19706" lon="5.94478">
        <ele>528.323</ele>
        <time>2019-10-25T05:46:35Z</time>
      </trkpt>
      <trkpt lat="44.19706" lon="5.94478">
        <ele>528.45</ele>
        <time>2019-10-25T05:46:41Z</time>
      </trkpt>
      <trkpt lat="44.19725" lon="5.94478">
        <ele>528.972</ele>
        <time>2019-10-25T05:46:46Z</time>
      </trkpt>
      <trkpt lat="44.19738" lon="5.94479">
        <ele>529.887</ele>
        <time>2019-10-25T05:46:52Z</time>
      </trkpt>
      <trkpt lat="44.19752" lon="5.94488">
        <ele>530.63</ele>
        <time>2019-10-25T05:46:58Z</time>
      </trkpt>
      <trkpt lat="44.1977" lon="5.94497">
        <ele>531.645</ele>
        <time>2019-10-25T05:47:03Z</time>
      </trkpt>
      <trkpt lat="44.19799" lon="5.94503">
        <ele>537.702</ele>
        <time>2019-10-25T05:47:09Z</time>
      </trkpt>
      <trkpt lat="44.19826" lon="5.94505">
        <ele>541.447</ele>
        <time>2019-10-25T05:47:14Z</time>
      </trkpt>
      <trkpt lat="44.19846" lon="5.945">
        <ele>542.199</ele>
        <time>2019-10-25T05:47:19Z</time>
      </trkpt>
      <trkpt lat="44.19868" lon="5.94493">
        <ele>542.774</ele>
        <time>2019-10-25T05:47:25Z</time>
      </trkpt>
      <trkpt lat="44.19889" lon="5.94488">
        <ele>541.478</ele>
        <time>2019-10-25T05:47:30Z</time>
      </trkpt>
      <trkpt lat="44.19906" lon="5.94486">
        <ele>540.868</ele>
        <time>2019-10-25T05:47:36Z</time>
      </trkpt>
      <trkpt lat="44.1993" lon="5.94484">
        <ele>536.243</ele>
        <time>2019-10-25T05:47:41Z</time>
      </trkpt>
      <trkpt lat="44.19953" lon="5.94476">
        <ele>536.63</ele>
        <time>2019-10-25T05:47:46Z</time>
      </trkpt>
      <trkpt lat="44.19976" lon="5.94454">
        <ele>535.432</ele>
        <time>2019-10-25T05:47:51Z</time>
      </trkpt>
      <trkpt lat="44.20003" lon="5.94413">
        <ele>533.81</ele>
        <time>2019-10-25T05:47:57Z</time>
      </trkpt>
      <trkpt lat="44.20032" lon="5.94369">
        <ele>533.545</ele>
        <time>2019-10-25T05:48:03Z</time>
      </trkpt>
      <trkpt lat="44.20054" lon="5.94317">
        <ele>533.162</ele>
        <time>2019-10-25T05:48:09Z</time>
      </trkpt>
      <trkpt lat="44.20074" lon="5.94286">
        <ele>529.556</ele>
        <time>2019-10-25T05:48:14Z</time>
      </trkpt>
      <trkpt lat="44.20091" lon="5.94249">
        <ele>527.08</ele>
        <time>2019-10-25T05:48:20Z</time>
      </trkpt>
      <trkpt lat="44.20086" lon="5.94192">
        <ele>524.111</ele>
        <time>2019-10-25T05:48:26Z</time>
      </trkpt>
      <trkpt lat="44.20085" lon="5.94125">
        <ele>523.5</ele>
        <time>2019-10-25T05:48:32Z</time>
      </trkpt>
      <trkpt lat="44.20085" lon="5.94056">
        <ele>522.172</ele>
        <time>2019-10-25T05:48:38Z</time>
      </trkpt>
      <trkpt lat="44.20103" lon="5.93991">
        <ele>516.829</ele>
        <time>2019-10-25T05:48:44Z</time>
      </trkpt>
      <trkpt lat="44.20141" lon="5.93973">
        <ele>515.632</ele>
        <time>2019-10-25T05:48:49Z</time>
      </trkpt>
      <trkpt lat="44.20183" lon="5.93941">
        <ele>514.896</ele>
        <time>2019-10-25T05:48:55Z</time>
      </trkpt>
      <trkpt lat="44.20203" lon="5.93905">
        <ele>513.629</ele>
        <time>2019-10-25T05:49:00Z</time>
      </trkpt>
      <trkpt lat="44.20217" lon="5.93868">
        <ele>509.834</ele>
        <time>2019-10-25T05:49:06Z</time>
      </trkpt>
      <trkpt lat="44.20227" lon="5.93838">
        <ele>511.329</ele>
        <time>2019-10-25T05:49:12Z</time>
      </trkpt>
      <trkpt lat="44.20237" lon="5.93812">
        <ele>512.041</ele>
        <time>2019-10-25T05:49:18Z</time>
      </trkpt>
      <trkpt lat="44.20246" lon="5.93785">
        <ele>512.804</ele>
        <time>2019-10-25T05:49:24Z</time>
      </trkpt>
      <trkpt lat="44.20254" lon="5.93768">
        <ele>513.528</ele>
        <time>2019-10-25T05:49:29Z</time>
      </trkpt>
      <trkpt lat="44.20261" lon="5.9375">
        <ele>514.146</ele>
        <time>2019-10-25T05:49:34Z</time>
      </trkpt>
      <trkpt lat="44.20268" lon="5.93731">
        <ele>515.131</ele>
        <time>2019-10-25T05:49:39Z</time>
      </trkpt>
      <trkpt lat="44.20284" lon="5.93708">
        <ele>516.265</ele>
        <time>2019-10-25T05:49:45Z</time>
      </trkpt>
      <trkpt lat="44.20293" lon="5.93693">
        <ele>517.348</ele>
        <time>2019-10-25T05:49:50Z</time>
      </trkpt>
      <trkpt lat="44.2031" lon="5.93678">
        <ele>518.241</ele>
        <time>2019-10-25T05:49:56Z</time>
      </trkpt>
      <trkpt lat="44.20324" lon="5.93667">
        <ele>519.165</ele>
        <time>2019-10-25T05:50:01Z</time>
      </trkpt>
      <trkpt lat="44.20337" lon="5.93652">
        <ele>520.288</ele>
        <time>2019-10-25T05:50:06Z</time>
      </trkpt>
      <trkpt lat="44.2035" lon="5.93635">
        <ele>521.74</ele>
        <time>2019-10-25T05:50:12Z</time>
      </trkpt>
      <trkpt lat="44.20363" lon="5.9362">
        <ele>522.728</ele>
        <time>2019-10-25T05:50:17Z</time>
      </trkpt>
      <trkpt lat="44.2038" lon="5.93602">
        <ele>523.811</ele>
        <time>2019-10-25T05:50:23Z</time>
      </trkpt>
      <trkpt lat="44.20387" lon="5.93585">
        <ele>524.822</ele>
        <time>2019-10-25T05:50:29Z</time>
      </trkpt>
      <trkpt lat="44.20403" lon="5.93568">
        <ele>525.445</ele>
        <time>2019-10-25T05:50:34Z</time>
      </trkpt>
      <trkpt lat="44.20421" lon="5.93552">
        <ele>526.526</ele>
        <time>2019-10-25T05:50:40Z</time>
      </trkpt>
      <trkpt lat="44.20439" lon="5.93546">
        <ele>527.523</ele>
        <time>2019-10-25T05:50:46Z</time>
      </trkpt>
      <trkpt lat="44.20455" lon="5.93569">
        <ele>528.509</ele>
        <time>2019-10-25T05:50:52Z</time>
      </trkpt>
      <trkpt lat="44.20465" lon="5.93587">
        <ele>529.644</ele>
        <time>2019-10-25T05:50:58Z</time>
      </trkpt>
      <trkpt lat="44.20472" lon="5.93581">
        <ele>530.604</ele>
        <time>2019-10-25T05:51:03Z</time>
      </trkpt>
      <trkpt lat="44.20474" lon="5.93581">
        <ele>530.652</ele>
        <time>2019-10-25T05:51:09Z</time>
      </trkpt>
      <trkpt lat="44.20474" lon="5.93581">
        <ele>530.669</ele>
        <time>2019-10-25T05:51:15Z</time>
      </trkpt>
      <trkpt lat="44.20474" lon="5.93581">
        <ele>530.792</ele>
        <time>2019-10-25T05:51:20Z</time>
      </trkpt>
      <trkpt lat="44.20474" lon="5.93581">
        <ele>530.967</ele>
        <time>2019-10-25T05:51:26Z</time>
      </trkpt>
      <trkpt lat="44.20474" lon="5.93581">
        <ele>531.773</ele>
        <time>2019-10-25T05:51:32Z</time>
      </trkpt>
      <trkpt lat="44.20474" lon="5.93581">
        <ele>532.053</ele>
        <time>2019-10-25T05:51:38Z</time>
      </trkpt>
      <trkpt lat="44.20474" lon="5.93581">
        <ele>532.238</ele>
        <time>2019-10-25T05:51:43Z</time>
      </trkpt>
      <trkpt lat="44.20474" lon="5.93581">
        <ele>532.282</ele>
        <time>2019-10-25T05:51:49Z</time>
      </trkpt>
      <trkpt lat="44.20474" lon="5.93581">
        <ele>532.294</ele>
        <time>2019-10-25T05:51:55Z</time>
      </trkpt>
      <trkpt lat="44.20474" lon="5.93581">
        <ele>532.256</ele>
        <time>2019-10-25T05:52:00Z</time>
      </trkpt>
      <trkpt lat="44.20474" lon="5.93581">
        <ele>532.168</ele>
        <time>2019-10-25T05:52:06Z</time>
      </trkpt>
      <trkpt lat="44.20474" lon="5.93581">
        <ele>532.067</ele>
        <time>2019-10-25T05:52:11Z</time>
      </trkpt>
      <trkpt lat="44.20474" lon="5.93581">
        <ele>532.017</ele>
        <time>2019-10-25T05:52:17Z</time>
      </trkpt>
      <trkpt lat="44.20474" lon="5.93581">
        <ele>532.039</ele>
        <time>2019-10-25T05:52:22Z</time>
      </trkpt>
      <trkpt lat="44.20474" lon="5.93581">
        <ele>532.025</ele>
        <time>2019-10-25T05:52:27Z</time>
      </trkpt>
      <trkpt lat="44.20474" lon="5.93581">
        <ele>531.859</ele>
        <time>2019-10-25T05:52:33Z</time>
      </trkpt>
      <trkpt lat="44.20474" lon="5.93581">
        <ele>531.634</ele>
        <time>2019-10-25T05:52:38Z</time>
      </trkpt>
      <trkpt lat="44.20474" lon="5.93581">
        <ele>531.064</ele>
        <time>2019-10-25T05:52:44Z</time>
      </trkpt>
      <trkpt lat="44.20474" lon="5.93581">
        <ele>530.967</ele>
        <time>2019-10-25T05:52:50Z</time>
      </trkpt>
      <trkpt lat="44.20474" lon="5.93581">
        <ele>530.827</ele>
        <time>2019-10-25T05:52:56Z</time>
      </trkpt>
      <trkpt lat="44.20474" lon="5.93581">
        <ele>530.748</ele>
        <time>2019-10-25T05:53:02Z</time>
      </trkpt>
      <trkpt lat="44.20466" lon="5.93583">
        <ele>532.007</ele>
        <time>2019-10-25T05:53:08Z</time>
      </trkpt>
      <trkpt lat="44.20466" lon="5.93583">
        <ele>532.157</ele>
        <time>2019-10-25T05:53:14Z</time>
      </trkpt>
      <trkpt lat="44.20466" lon="5.93583">
        <ele>532.258</ele>
        <time>2019-10-25T05:53:19Z</time>
      </trkpt>
      <trkpt lat="44.20466" lon="5.93583">
        <ele>531.812</ele>
        <time>2019-10-25T05:53:25Z</time>
      </trkpt>
      <trkpt lat="44.20466" lon="5.93583">
        <ele>531.854</ele>
        <time>2019-10-25T05:53:30Z</time>
      </trkpt>
      <trkpt lat="44.20466" lon="5.93583">
        <ele>531.93</ele>
        <time>2019-10-25T05:53:36Z</time>
      </trkpt>
      <trkpt lat="44.20466" lon="5.93583">
        <ele>531.994</ele>
        <time>2019-10-25T05:53:42Z</time>
      </trkpt>
      <trkpt lat="44.20466" lon="5.93583">
        <ele>532.044</ele>
        <time>2019-10-25T05:53:48Z</time>
      </trkpt>
      <trkpt lat="44.20466" lon="5.93583">
        <ele>532.04</ele>
        <time>2019-10-25T05:53:54Z</time>
      </trkpt>
      <trkpt lat="44.20466" lon="5.93583">
        <ele>532.026</ele>
        <time>2019-10-25T05:53:59Z</time>
      </trkpt>
      <trkpt lat="44.20464" lon="5.93584">
        <ele>532.026</ele>
        <time>2019-10-25T05:54:05Z</time>
      </trkpt>
      <trkpt lat="44.20464" lon="5.93584">
        <ele>532.041</ele>
        <time>2019-10-25T05:54:10Z</time>
      </trkpt>
      <trkpt lat="44.20464" lon="5.93584">
        <ele>531.618</ele>
        <time>2019-10-25T05:54:16Z</time>
      </trkpt>
      <trkpt lat="44.20462" lon="5.9358">
        <ele>531.738</ele>
        <time>2019-10-25T05:54:22Z</time>
      </trkpt>
      <trkpt lat="44.2045" lon="5.93561">
        <ele>532.423</ele>
        <time>2019-10-25T05:54:28Z</time>
      </trkpt>
      <trkpt lat="44.20431" lon="5.93554">
        <ele>532.364</ele>
        <time>2019-10-25T05:54:34Z</time>
      </trkpt>
      <trkpt lat="44.2043" lon="5.93554">
        <ele>532.721</ele>
        <time>2019-10-25T05:54:40Z</time>
      </trkpt>
      <trkpt lat="44.20431" lon="5.93553">
        <ele>533.134</ele>
        <time>2019-10-25T05:54:46Z</time>
      </trkpt>
    </trkseg>
  </trk>
</gpx>